sensor_id;sensor_type;location;lat;lon;timestamp;pressure;altitude;pressure_sealevel;temperature;humidity
76794;BME280;65745;50.278;18.192;2024-03-08T00:00:34;100397.15;;;0.57;81.46
76794;BME280;65745;50.278;18.192;2024-03-08T00:03:28;100401.81;;;0.58;80.96
76794;BME280;65745;50.278;18.192;2024-03-08T00:06:02;100400.89;;;0.60;81.09
76794;BME280;65745;50.278;18.192;2024-03-08T00:08:35;100398.52;;;0.62;80.80
76794;BME280;65745;50.278;18.192;2024-03-08T00:11:08;100397.40;;;0.58;80.29
76794;BME280;65745;50.278;18.192;2024-03-08T00:13:40;100394.67;;;0.43;81.28
76794;BME280;65745;50.278;18.192;2024-03-08T00:16:12;100399.66;;;0.39;81.52
76794;BME280;65745;50.278;18.192;2024-03-08T00:18:44;100403.95;;;0.37;81.08
76794;BME280;65745;50.278;18.192;2024-03-08T00:21:17;100406.70;;;0.30;81.29
76794;BME280;65745;50.278;18.192;2024-03-08T00:23:49;100410.10;;;0.26;81.17
76794;BME280;65745;50.278;18.192;2024-03-08T00:26:21;100406.33;;;0.10;82.27
76794;BME280;65745;50.278;18.192;2024-03-08T00:28:54;100403.55;;;-0.03;82.72
76794;BME280;65745;50.278;18.192;2024-03-08T00:31:26;100400.87;;;-0.05;82.48
76794;BME280;65745;50.278;18.192;2024-03-08T00:33:59;100398.96;;;-0.05;82.15
76794;BME280;65745;50.278;18.192;2024-03-08T00:36:31;100394.31;;;-0.07;81.92
76794;BME280;65745;50.278;18.192;2024-03-08T00:39:04;100393.92;;;-0.05;81.95
76794;BME280;65745;50.278;18.192;2024-03-08T00:41:37;100396.71;;;-0.06;81.93
76794;BME280;65745;50.278;18.192;2024-03-08T00:44:09;100397.64;;;-0.10;82.52
76794;BME280;65745;50.278;18.192;2024-03-08T00:46:42;100391.71;;;-0.17;83.90
76794;BME280;65745;50.278;18.192;2024-03-08T00:49:14;100385.02;;;-0.21;83.65
76794;BME280;65745;50.278;18.192;2024-03-08T00:51:47;100379.79;;;-0.18;83.20
76794;BME280;65745;50.278;18.192;2024-03-08T00:54:20;100372.48;;;-0.19;82.87
76794;BME280;65745;50.278;18.192;2024-03-08T00:56:52;100380.66;;;-0.15;82.42
76794;BME280;65745;50.278;18.192;2024-03-08T00:59:24;100379.23;;;-0.14;82.44
76794;BME280;65745;50.278;18.192;2024-03-08T01:01:56;100378.46;;;-0.11;82.12
76794;BME280;65745;50.278;18.192;2024-03-08T01:04:30;100371.08;;;-0.10;82.21
76794;BME280;65745;50.278;18.192;2024-03-08T01:07:02;100373.35;;;-0.13;82.90
76794;BME280;65745;50.278;18.192;2024-03-08T01:09:34;100369.64;;;-0.21;82.76
76794;BME280;65745;50.278;18.192;2024-03-08T01:12:07;100369.67;;;-0.25;82.60
76794;BME280;65745;50.278;18.192;2024-03-08T01:14:41;100364.41;;;-0.27;82.51
76794;BME280;65745;50.278;18.192;2024-03-08T01:17:14;100360.89;;;-0.29;82.31
76794;BME280;65745;50.278;18.192;2024-03-08T01:19:46;100359.83;;;-0.32;82.18
76794;BME280;65745;50.278;18.192;2024-03-08T01:22:19;100356.95;;;-0.35;82.26
76794;BME280;65745;50.278;18.192;2024-03-08T01:24:51;100355.20;;;-0.38;82.67
76794;BME280;65745;50.278;18.192;2024-03-08T01:27:23;100357.16;;;-0.39;82.40
76794;BME280;65745;50.278;18.192;2024-03-08T01:29:56;100360.86;;;-0.37;82.04
76794;BME280;65745;50.278;18.192;2024-03-08T01:32:29;100356.70;;;-0.38;82.10
76794;BME280;65745;50.278;18.192;2024-03-08T01:35:01;100354.06;;;-0.40;81.96
76794;BME280;65745;50.278;18.192;2024-03-08T01:37:34;100354.96;;;-0.39;82.05
76794;BME280;65745;50.278;18.192;2024-03-08T01:40:08;100354.59;;;-0.40;82.21
76794;BME280;65745;50.278;18.192;2024-03-08T01:42:41;100349.09;;;-0.62;84.80
76794;BME280;65745;50.278;18.192;2024-03-08T01:45:13;100342.45;;;-0.68;84.69
76794;BME280;65745;50.278;18.192;2024-03-08T01:47:45;100338.63;;;-0.67;84.02
76794;BME280;65745;50.278;18.192;2024-03-08T01:50:19;100341.40;;;-0.66;83.42
76794;BME280;65745;50.278;18.192;2024-03-08T01:52:52;100340.80;;;-0.65;82.92
76794;BME280;65745;50.278;18.192;2024-03-08T01:55:24;100342.85;;;-0.67;83.03
76794;BME280;65745;50.278;18.192;2024-03-08T01:57:57;100344.16;;;-0.70;83.26
76794;BME280;65745;50.278;18.192;2024-03-08T02:00:29;100338.81;;;-0.73;83.94
76794;BME280;65745;50.278;18.192;2024-03-08T02:03:03;100341.50;;;-0.74;83.49
76794;BME280;65745;50.278;18.192;2024-03-08T02:05:35;100339.23;;;-0.72;83.02
76794;BME280;65745;50.278;18.192;2024-03-08T02:08:09;100332.67;;;-0.74;83.20
76794;BME280;65745;50.278;18.192;2024-03-08T02:10:46;100326.16;;;-0.82;83.27
76794;BME280;65745;50.278;18.192;2024-03-08T02:13:18;100326.42;;;-0.84;83.10
76794;BME280;65745;50.278;18.192;2024-03-08T02:15:55;100325.81;;;-0.88;83.08
76794;BME280;65745;50.278;18.192;2024-03-08T02:18:29;100325.73;;;-0.93;83.93
76794;BME280;65745;50.278;18.192;2024-03-08T02:21:02;100327.38;;;-0.96;84.73
76794;BME280;65745;50.278;18.192;2024-03-08T02:23:35;100323.28;;;-0.97;84.22
76794;BME280;65745;50.278;18.192;2024-03-08T02:26:08;100321.15;;;-0.94;83.87
76794;BME280;65745;50.278;18.192;2024-03-08T02:28:41;100322.46;;;-0.92;84.02
76794;BME280;65745;50.278;18.192;2024-03-08T02:31:14;100325.84;;;-0.90;83.62
76794;BME280;65745;50.278;18.192;2024-03-08T02:33:47;100329.35;;;-0.90;84.01
76794;BME280;65745;50.278;18.192;2024-03-08T02:36:19;100326.71;;;-0.91;84.26
76794;BME280;65745;50.278;18.192;2024-03-08T02:38:52;100325.88;;;-0.96;85.07
76794;BME280;65745;50.278;18.192;2024-03-08T02:41:26;100325.77;;;-1.02;85.74
76794;BME280;65745;50.278;18.192;2024-03-08T02:43:58;100329.02;;;-1.06;85.70
76794;BME280;65745;50.278;18.192;2024-03-08T02:46:31;100328.95;;;-1.09;85.08
76794;BME280;65745;50.278;18.192;2024-03-08T02:49:03;100328.08;;;-1.14;84.80
76794;BME280;65745;50.278;18.192;2024-03-08T02:51:37;100326.57;;;-1.12;84.63
76794;BME280;65745;50.278;18.192;2024-03-08T02:54:09;100330.89;;;-1.13;85.00
76794;BME280;65745;50.278;18.192;2024-03-08T02:56:42;100326.31;;;-1.15;85.08
76794;BME280;65745;50.278;18.192;2024-03-08T02:59:14;100326.09;;;-1.16;84.74
76794;BME280;65745;50.278;18.192;2024-03-08T03:01:48;100321.47;;;-1.15;84.34
76794;BME280;65745;50.278;18.192;2024-03-08T03:04:20;100318.45;;;-1.12;83.91
76794;BME280;65745;50.278;18.192;2024-03-08T03:06:53;100316.61;;;-1.12;83.93
76794;BME280;65745;50.278;18.192;2024-03-08T03:09:25;100317.75;;;-1.15;84.14
76794;BME280;65745;50.278;18.192;2024-03-08T03:11:59;100314.91;;;-1.14;84.12
76794;BME280;65745;50.278;18.192;2024-03-08T03:14:31;100316.63;;;-1.16;84.60
76794;BME280;65745;50.278;18.192;2024-03-08T03:17:04;100310.85;;;-1.21;84.88
76794;BME280;65745;50.278;18.192;2024-03-08T03:19:36;100313.38;;;-1.24;85.08
76794;BME280;65745;50.278;18.192;2024-03-08T03:22:10;100317.75;;;-1.19;84.76
76794;BME280;65745;50.278;18.192;2024-03-08T03:24:43;100322.44;;;-1.13;84.77
76794;BME280;65745;50.278;18.192;2024-03-08T03:27:15;100322.70;;;-1.07;85.24
76794;BME280;65745;50.278;18.192;2024-03-08T03:29:48;100320.83;;;-1.00;85.16
76794;BME280;65745;50.278;18.192;2024-03-08T03:32:20;100318.80;;;-0.91;85.26
76794;BME280;65745;50.278;18.192;2024-03-08T03:34:52;100315.60;;;-0.86;85.57
76794;BME280;65745;50.278;18.192;2024-03-08T03:37:25;100313.77;;;-0.76;86.00
76794;BME280;65745;50.278;18.192;2024-03-08T03:39:57;100317.96;;;-0.65;86.27
76794;BME280;65745;50.278;18.192;2024-03-08T03:42:29;100317.80;;;-0.51;86.00
76794;BME280;65745;50.278;18.192;2024-03-08T03:45:02;100312.46;;;-0.42;84.78
76794;BME280;65745;50.278;18.192;2024-03-08T03:47:34;100313.16;;;-0.49;84.13
76794;BME280;65745;50.278;18.192;2024-03-08T03:50:09;100310.05;;;-0.62;83.99
76794;BME280;65745;50.278;18.192;2024-03-08T03:52:41;100308.70;;;-0.67;83.65
76794;BME280;65745;50.278;18.192;2024-03-08T03:55:13;100310.05;;;-0.74;83.79
76794;BME280;65745;50.278;18.192;2024-03-08T03:57:46;100311.52;;;-0.93;84.65
76794;BME280;65745;50.278;18.192;2024-03-08T04:00:20;100312.55;;;-0.96;84.25
76794;BME280;65745;50.278;18.192;2024-03-08T04:02:52;100311.98;;;-1.08;84.00
76794;BME280;65745;50.278;18.192;2024-03-08T04:05:26;100305.19;;;-1.20;84.22
76794;BME280;65745;50.278;18.192;2024-03-08T04:07:58;100307.44;;;-1.22;84.38
76794;BME280;65745;50.278;18.192;2024-03-08T04:10:31;100304.96;;;-1.18;85.02
76794;BME280;65745;50.278;18.192;2024-03-08T04:13:03;100305.42;;;-1.10;85.47
76794;BME280;65745;50.278;18.192;2024-03-08T04:15:36;100304.15;;;-0.99;85.86
76794;BME280;65745;50.278;18.192;2024-03-08T04:18:08;100305.11;;;-0.93;85.50
76794;BME280;65745;50.278;18.192;2024-03-08T04:20:41;100306.12;;;-0.91;85.01
76794;BME280;65745;50.278;18.192;2024-03-08T04:23:13;100308.07;;;-0.88;84.62
76794;BME280;65745;50.278;18.192;2024-03-08T04:25:45;100306.86;;;-0.87;84.34
76794;BME280;65745;50.278;18.192;2024-03-08T04:28:17;100310.54;;;-0.91;83.98
76794;BME280;65745;50.278;18.192;2024-03-08T04:30:50;100311.87;;;-1.03;84.42
76794;BME280;65745;50.278;18.192;2024-03-08T04:33:22;100312.02;;;-1.16;84.94
76794;BME280;65745;50.278;18.192;2024-03-08T04:35:54;100311.77;;;-1.30;85.67
76794;BME280;65745;50.278;18.192;2024-03-08T04:38:27;100314.11;;;-1.30;85.59
76794;BME280;65745;50.278;18.192;2024-03-08T04:41:00;100311.74;;;-1.39;85.16
76794;BME280;65745;50.278;18.192;2024-03-08T04:43:33;100311.27;;;-1.41;84.84
76794;BME280;65745;50.278;18.192;2024-03-08T04:46:06;100314.97;;;-1.42;84.53
76794;BME280;65745;50.278;18.192;2024-03-08T04:48:38;100313.63;;;-1.43;84.80
76794;BME280;65745;50.278;18.192;2024-03-08T04:51:13;100312.16;;;-1.50;85.29
76794;BME280;65745;50.278;18.192;2024-03-08T04:53:46;100314.05;;;-1.58;85.80
76794;BME280;65745;50.278;18.192;2024-03-08T04:56:18;100314.67;;;-1.63;85.60
76794;BME280;65745;50.278;18.192;2024-03-08T04:58:51;100311.83;;;-1.70;86.23
76794;BME280;65745;50.278;18.192;2024-03-08T05:01:24;100303.77;;;-1.72;86.03
76794;BME280;65745;50.278;18.192;2024-03-08T05:03:57;100306.29;;;-1.74;86.19
76794;BME280;65745;50.278;18.192;2024-03-08T05:06:35;100307.27;;;-1.77;85.86
76794;BME280;65745;50.278;18.192;2024-03-08T05:09:08;100304.75;;;-1.76;85.81
76794;BME280;65745;50.278;18.192;2024-03-08T05:11:48;100304.80;;;-1.80;85.83
76794;BME280;65745;50.278;18.192;2024-03-08T05:14:21;100306.70;;;-1.84;85.84
76794;BME280;65745;50.278;18.192;2024-03-08T05:16:53;100308.09;;;-1.86;85.78
76794;BME280;65745;50.278;18.192;2024-03-08T05:19:25;100305.90;;;-1.86;85.55
76794;BME280;65745;50.278;18.192;2024-03-08T05:22:01;100304.39;;;-1.85;85.47
76794;BME280;65745;50.278;18.192;2024-03-08T05:24:33;100306.65;;;-1.83;85.04
76794;BME280;65745;50.278;18.192;2024-03-08T05:27:06;100308.32;;;-1.83;84.88
76794;BME280;65745;50.278;18.192;2024-03-08T05:29:39;100310.21;;;-1.80;84.70
76794;BME280;65745;50.278;18.192;2024-03-08T05:32:11;100311.21;;;-1.81;84.68
76794;BME280;65745;50.278;18.192;2024-03-08T05:34:45;100313.70;;;-1.92;87.17
76794;BME280;65745;50.278;18.192;2024-03-08T05:37:17;100319.92;;;-1.94;87.41
76794;BME280;65745;50.278;18.192;2024-03-08T05:39:51;100320.60;;;-1.94;87.37
76794;BME280;65745;50.278;18.192;2024-03-08T05:42:23;100318.90;;;-1.90;86.99
76794;BME280;65745;50.278;18.192;2024-03-08T05:44:55;100316.21;;;-1.83;86.13
76794;BME280;65745;50.278;18.192;2024-03-08T05:47:28;100318.84;;;-1.80;86.36
76794;BME280;65745;50.278;18.192;2024-03-08T05:50:01;100319.55;;;-1.75;86.29
76794;BME280;65745;50.278;18.192;2024-03-08T05:52:33;100322.16;;;-1.67;85.70
76794;BME280;65745;50.278;18.192;2024-03-08T05:55:06;100322.41;;;-1.64;86.17
76794;BME280;65745;50.278;18.192;2024-03-08T05:57:41;100322.35;;;-1.64;87.15
76794;BME280;65745;50.278;18.192;2024-03-08T06:00:14;100326.84;;;-1.58;86.59
76794;BME280;65745;50.278;18.192;2024-03-08T06:02:47;100326.34;;;-1.50;85.98
76794;BME280;65745;50.278;18.192;2024-03-08T06:05:20;100328.68;;;-1.41;85.70
76794;BME280;65745;50.278;18.192;2024-03-08T06:07:54;100332.45;;;-1.34;85.41
76794;BME280;65745;50.278;18.192;2024-03-08T06:10:27;100330.36;;;-1.25;85.24
76794;BME280;65745;50.278;18.192;2024-03-08T06:13:00;100333.42;;;-1.15;85.09
76794;BME280;65745;50.278;18.192;2024-03-08T06:15:32;100332.10;;;-1.08;85.12
76794;BME280;65745;50.278;18.192;2024-03-08T06:18:06;100334.66;;;-1.00;85.30
76794;BME280;65745;50.278;18.192;2024-03-08T06:20:41;100339.94;;;-0.96;85.88
76794;BME280;65745;50.278;18.192;2024-03-08T06:23:17;100338.71;;;-0.89;86.25
76794;BME280;65745;50.278;18.192;2024-03-08T06:25:49;100338.19;;;-0.85;86.42
76794;BME280;65745;50.278;18.192;2024-03-08T06:28:21;100332.58;;;-0.73;85.85
76794;BME280;65745;50.278;18.192;2024-03-08T06:30:53;100333.00;;;-0.63;85.77
76794;BME280;65745;50.278;18.192;2024-03-08T06:33:26;100332.44;;;-0.54;85.53
76794;BME280;65745;50.278;18.192;2024-03-08T06:35:58;100329.96;;;-0.41;85.54
76794;BME280;65745;50.278;18.192;2024-03-08T06:38:31;100326.66;;;-0.30;85.28
76794;BME280;65745;50.278;18.192;2024-03-08T06:41:03;100329.07;;;-0.17;85.25
76794;BME280;65745;50.278;18.192;2024-03-08T06:43:35;100331.76;;;-0.03;85.27
76794;BME280;65745;50.278;18.192;2024-03-08T06:46:08;100331.23;;;0.12;85.45
76794;BME280;65745;50.278;18.192;2024-03-08T06:48:40;100327.77;;;0.25;85.20
76794;BME280;65745;50.278;18.192;2024-03-08T06:51:12;100328.19;;;0.39;85.52
76794;BME280;65745;50.278;18.192;2024-03-08T06:53:46;100324.19;;;0.56;85.44
76794;BME280;65745;50.278;18.192;2024-03-08T06:56:18;100323.80;;;0.70;84.84
76794;BME280;65745;50.278;18.192;2024-03-08T06:58:50;100320.64;;;0.87;84.45
76794;BME280;65745;50.278;18.192;2024-03-08T07:01:22;100317.23;;;1.05;84.15
76794;BME280;65745;50.278;18.192;2024-03-08T07:03:55;100318.43;;;1.23;84.19
76794;BME280;65745;50.278;18.192;2024-03-08T07:06:27;100314.48;;;1.44;83.59
76794;BME280;65745;50.278;18.192;2024-03-08T07:09:00;100313.23;;;1.60;83.18
76794;BME280;65745;50.278;18.192;2024-03-08T07:11:33;100313.40;;;1.79;83.44
76794;BME280;65745;50.278;18.192;2024-03-08T07:14:05;100309.20;;;1.99;83.07
76794;BME280;65745;50.278;18.192;2024-03-08T07:16:38;100313.32;;;2.17;82.73
76794;BME280;65745;50.278;18.192;2024-03-08T07:19:10;100312.02;;;2.32;82.31
76794;BME280;65745;50.278;18.192;2024-03-08T07:21:43;100316.36;;;2.48;82.10
76794;BME280;65745;50.278;18.192;2024-03-08T07:24:15;100314.63;;;2.65;81.93
76794;BME280;65745;50.278;18.192;2024-03-08T07:27:08;100312.45;;;2.83;81.63
76794;BME280;65745;50.278;18.192;2024-03-08T07:29:41;100316.25;;;3.02;80.54
76794;BME280;65745;50.278;18.192;2024-03-08T07:32:13;100316.63;;;3.15;80.33
76794;BME280;65745;50.278;18.192;2024-03-08T07:34:51;100314.25;;;3.27;80.05
76794;BME280;65745;50.278;18.192;2024-03-08T07:37:24;100308.58;;;3.38;79.35
76794;BME280;65745;50.278;18.192;2024-03-08T07:39:56;100310.23;;;3.53;79.41
76794;BME280;65745;50.278;18.192;2024-03-08T07:42:29;100308.59;;;3.64;78.91
76794;BME280;65745;50.278;18.192;2024-03-08T07:45:01;100306.95;;;3.71;78.54
76794;BME280;65745;50.278;18.192;2024-03-08T07:47:35;100306.80;;;3.87;78.55
76794;BME280;65745;50.278;18.192;2024-03-08T07:50:09;100305.13;;;3.98;77.91
76794;BME280;65745;50.278;18.192;2024-03-08T07:52:42;100301.31;;;4.06;77.21
76794;BME280;65745;50.278;18.192;2024-03-08T07:55:14;100305.44;;;4.10;76.61
76794;BME280;65745;50.278;18.192;2024-03-08T07:57:46;100299.48;;;4.16;76.91
76794;BME280;65745;50.278;18.192;2024-03-08T08:00:20;100299.31;;;4.27;76.60
76794;BME280;65745;50.278;18.192;2024-03-08T08:02:52;100301.05;;;4.37;76.60
76794;BME280;65745;50.278;18.192;2024-03-08T08:05:24;100297.94;;;4.43;75.72
76794;BME280;65745;50.278;18.192;2024-03-08T08:07:57;100295.27;;;4.51;75.71
76794;BME280;65745;50.278;18.192;2024-03-08T08:10:29;100293.24;;;4.58;74.72
76794;BME280;65745;50.278;18.192;2024-03-08T08:13:03;100296.39;;;4.53;72.78
76794;BME280;65745;50.278;18.192;2024-03-08T08:15:36;100293.84;;;4.50;73.87
76794;BME280;65745;50.278;18.192;2024-03-08T08:18:08;100292.00;;;4.51;73.49
76794;BME280;65745;50.278;18.192;2024-03-08T08:20:41;100290.66;;;4.61;74.11
76794;BME280;65745;50.278;18.192;2024-03-08T08:23:13;100291.58;;;4.77;74.11
76794;BME280;65745;50.278;18.192;2024-03-08T08:25:46;100293.09;;;4.79;73.51
76794;BME280;65745;50.278;18.192;2024-03-08T08:28:23;100289.33;;;4.79;73.09
76794;BME280;65745;50.278;18.192;2024-03-08T08:30:55;100292.45;;;4.87;73.57
76794;BME280;65745;50.278;18.192;2024-03-08T08:33:27;100297.40;;;5.01;73.34
76794;BME280;65745;50.278;18.192;2024-03-08T08:35:59;100299.20;;;5.13;73.07
76794;BME280;65745;50.278;18.192;2024-03-08T08:38:32;100300.33;;;5.20;71.91
76794;BME280;65745;50.278;18.192;2024-03-08T08:41:05;100300.36;;;5.13;70.38
76794;BME280;65745;50.278;18.192;2024-03-08T08:43:38;100299.17;;;5.24;71.41
76794;BME280;65745;50.278;18.192;2024-03-08T08:46:20;100300.11;;;5.33;71.14
76794;BME280;65745;50.278;18.192;2024-03-08T08:48:54;100299.73;;;5.46;71.04
76794;BME280;65745;50.278;18.192;2024-03-08T08:51:27;100290.83;;;5.64;71.67
76794;BME280;65745;50.278;18.192;2024-03-08T08:54:04;100296.23;;;5.89;71.20
76794;BME280;65745;50.278;18.192;2024-03-08T08:56:41;100295.14;;;6.10;71.09
76794;BME280;65745;50.278;18.192;2024-03-08T08:59:15;100289.17;;;6.26;68.96
76794;BME280;65745;50.278;18.192;2024-03-08T09:01:53;100282.10;;;6.41;70.33
76794;BME280;65745;50.278;18.192;2024-03-08T09:04:26;100284.13;;;6.69;70.44
76794;BME280;65745;50.278;18.192;2024-03-08T09:06:58;100279.49;;;6.89;69.80
76794;BME280;65745;50.278;18.192;2024-03-08T09:09:32;100282.06;;;6.89;69.19
76794;BME280;65745;50.278;18.192;2024-03-08T09:12:06;100284.75;;;6.71;68.79
76794;BME280;65745;50.278;18.192;2024-03-08T09:14:39;100279.27;;;6.67;68.74
76794;BME280;65745;50.278;18.192;2024-03-08T09:17:12;100279.13;;;6.84;68.34
76794;BME280;65745;50.278;18.192;2024-03-08T09:19:46;100279.61;;;6.84;68.97
76794;BME280;65745;50.278;18.192;2024-03-08T09:22:19;100278.71;;;6.83;67.61
76794;BME280;65745;50.278;18.192;2024-03-08T09:24:51;100271.61;;;7.02;67.35
76794;BME280;65745;50.278;18.192;2024-03-08T09:27:23;100268.94;;;7.25;67.73
76794;BME280;65745;50.278;18.192;2024-03-08T09:29:56;100267.88;;;7.51;67.09
76794;BME280;65745;50.278;18.192;2024-03-08T09:32:28;100269.55;;;7.54;66.56
76794;BME280;65745;50.278;18.192;2024-03-08T09:35:01;100266.90;;;7.52;64.88
76794;BME280;65745;50.278;18.192;2024-03-08T09:37:33;100261.50;;;7.50;65.66
76794;BME280;65745;50.278;18.192;2024-03-08T09:40:07;100262.00;;;7.54;65.84
76794;BME280;65745;50.278;18.192;2024-03-08T09:42:41;100261.92;;;7.75;66.46
76794;BME280;65745;50.278;18.192;2024-03-08T09:45:13;100256.95;;;7.98;65.76
76794;BME280;65745;50.278;18.192;2024-03-08T09:47:46;100256.61;;;8.18;64.86
76794;BME280;65745;50.278;18.192;2024-03-08T09:50:20;100254.71;;;8.32;63.71
76794;BME280;65745;50.278;18.192;2024-03-08T09:52:52;100253.15;;;8.56;65.21
76794;BME280;65745;50.278;18.192;2024-03-08T09:55:28;100253.09;;;8.64;63.66
76794;BME280;65745;50.278;18.192;2024-03-08T09:58:06;100254.17;;;8.55;63.24
76794;BME280;65745;50.278;18.192;2024-03-08T10:01:07;100257.48;;;8.46;64.22
76794;BME280;65745;50.278;18.192;2024-03-08T10:03:39;100255.59;;;8.46;63.03
76794;BME280;65745;50.278;18.192;2024-03-08T10:06:12;100257.06;;;8.55;61.57
76794;BME280;65745;50.278;18.192;2024-03-08T10:08:44;100254.45;;;8.64;63.18
76794;BME280;65745;50.278;18.192;2024-03-08T10:11:17;100255.40;;;8.56;60.47
76794;BME280;65745;50.278;18.192;2024-03-08T10:13:51;100254.69;;;8.35;59.84
76794;BME280;65745;50.278;18.192;2024-03-08T10:16:23;100248.73;;;8.37;60.84
76794;BME280;65745;50.278;18.192;2024-03-08T10:18:59;100249.13;;;8.24;59.63
76794;BME280;65745;50.278;18.192;2024-03-08T10:21:32;100246.97;;;8.22;60.39
76794;BME280;65745;50.278;18.192;2024-03-08T10:24:05;100242.66;;;7.97;60.02
76794;BME280;65745;50.278;18.192;2024-03-08T10:26:44;100243.83;;;7.77;60.46
76794;BME280;65745;50.278;18.192;2024-03-08T10:29:16;100250.55;;;7.64;60.11
76794;BME280;65745;50.278;18.192;2024-03-08T10:31:49;100252.91;;;7.82;61.16
76794;BME280;65745;50.278;18.192;2024-03-08T10:34:22;100249.96;;;8.38;61.02
76794;BME280;65745;50.278;18.192;2024-03-08T10:36:59;100247.67;;;9.14;58.92
76794;BME280;65745;50.278;18.192;2024-03-08T10:39:36;100247.70;;;10.03;56.08
76794;BME280;65745;50.278;18.192;2024-03-08T10:42:12;100242.02;;;10.74;52.78
76794;BME280;65745;50.278;18.192;2024-03-08T10:45:01;100244.11;;;11.49;49.98
76794;BME280;65745;50.278;18.192;2024-03-08T10:47:42;100237.88;;;12.74;49.40
76794;BME280;65745;50.278;18.192;2024-03-08T10:50:20;100232.05;;;13.98;48.20
76794;BME280;65745;50.278;18.192;2024-03-08T10:52:53;100228.11;;;14.88;45.99
76794;BME280;65745;50.278;18.192;2024-03-08T10:55:29;100222.05;;;14.91;41.89
76794;BME280;65745;50.278;18.192;2024-03-08T10:58:05;100218.34;;;15.05;43.29
76794;BME280;65745;50.278;18.192;2024-03-08T11:00:39;100214.73;;;14.85;43.27
76794;BME280;65745;50.278;18.192;2024-03-08T11:03:46;100210.77;;;15.43;42.56
76794;BME280;65745;50.278;18.192;2024-03-08T11:06:23;100211.06;;;15.35;42.59
76794;BME280;65745;50.278;18.192;2024-03-08T11:09:10;100207.11;;;15.40;42.35
76794;BME280;65745;50.278;18.192;2024-03-08T11:11:48;100204.70;;;14.67;43.85
76794;BME280;65745;50.278;18.192;2024-03-08T11:14:43;100203.80;;;13.96;42.35
76794;BME280;65745;50.278;18.192;2024-03-08T11:17:22;100207.15;;;13.19;43.63
76794;BME280;65745;50.278;18.192;2024-03-08T11:19:59;100198.00;;;12.76;46.90
76794;BME280;65745;50.278;18.192;2024-03-08T11:22:34;100200.25;;;12.35;46.51
76794;BME280;65745;50.278;18.192;2024-03-08T11:25:10;100200.83;;;11.91;47.82
76794;BME280;65745;50.278;18.192;2024-03-08T11:28:13;100198.39;;;11.58;48.56
76794;BME280;65745;50.278;18.192;2024-03-08T11:31:25;100189.89;;;11.39;49.42
76794;BME280;65745;50.278;18.192;2024-03-08T11:33:59;100185.60;;;11.23;50.37
76794;BME280;65745;50.278;18.192;2024-03-08T11:36:36;100184.12;;;11.11;49.57
76794;BME280;65745;50.278;18.192;2024-03-08T11:39:09;100184.23;;;11.16;49.96
76794;BME280;65745;50.278;18.192;2024-03-08T11:41:45;100179.26;;;10.94;48.49
76794;BME280;65745;50.278;18.192;2024-03-08T11:44:18;100174.87;;;10.98;49.71
76794;BME280;65745;50.278;18.192;2024-03-08T11:46:51;100170.20;;;10.98;49.79
76794;BME280;65745;50.278;18.192;2024-03-08T11:49:25;100169.19;;;10.91;50.25
76794;BME280;65745;50.278;18.192;2024-03-08T11:51:58;100166.33;;;10.57;50.99
76794;BME280;65745;50.278;18.192;2024-03-08T11:54:31;100169.95;;;10.30;49.98
76794;BME280;65745;50.278;18.192;2024-03-08T11:57:05;100165.18;;;10.06;50.19
76794;BME280;65745;50.278;18.192;2024-03-08T11:59:37;100159.53;;;10.01;51.08
76794;BME280;65745;50.278;18.192;2024-03-08T12:02:11;100156.23;;;10.25;51.16
76794;BME280;65745;50.278;18.192;2024-03-08T12:04:43;100149.47;;;10.43;51.81
76794;BME280;65745;50.278;18.192;2024-03-08T12:07:17;100149.59;;;10.42;51.35
76794;BME280;65745;50.278;18.192;2024-03-08T12:10:16;100141.70;;;10.43;52.05
76794;BME280;65745;50.278;18.192;2024-03-08T12:12:50;100140.42;;;10.40;51.77
76794;BME280;65745;50.278;18.192;2024-03-08T12:15:24;100135.21;;;10.52;51.74
76794;BME280;65745;50.278;18.192;2024-03-08T12:17:57;100137.62;;;10.38;51.30
76794;BME280;65745;50.278;18.192;2024-03-08T12:20:30;100139.09;;;10.28;51.66
76794;BME280;65745;50.278;18.192;2024-03-08T12:23:02;100132.01;;;10.35;52.73
76794;BME280;65745;50.278;18.192;2024-03-08T12:25:36;100131.25;;;10.32;51.99
76794;BME280;65745;50.278;18.192;2024-03-08T12:28:12;100126.49;;;10.48;53.27
76794;BME280;65745;50.278;18.192;2024-03-08T12:30:51;100125.71;;;10.66;53.53
76794;BME280;65745;50.278;18.192;2024-03-08T12:33:25;100125.89;;;10.89;53.35
76794;BME280;65745;50.278;18.192;2024-03-08T12:35:58;100119.63;;;11.02;52.40
76794;BME280;65745;50.278;18.192;2024-03-08T12:38:30;100116.75;;;10.96;52.67
76794;BME280;65745;50.278;18.192;2024-03-08T12:41:03;100115.02;;;10.82;49.99
76794;BME280;65745;50.278;18.192;2024-03-08T12:43:35;100111.09;;;10.67;49.17
76794;BME280;65745;50.278;18.192;2024-03-08T12:46:08;100110.10;;;10.69;51.30
76794;BME280;65745;50.278;18.192;2024-03-08T12:48:41;100104.66;;;10.65;51.14
76794;BME280;65745;50.278;18.192;2024-03-08T12:51:19;100098.98;;;10.73;52.38
76794;BME280;65745;50.278;18.192;2024-03-08T12:53:52;100094.38;;;10.90;52.24
76794;BME280;65745;50.278;18.192;2024-03-08T12:56:32;100095.56;;;10.74;49.48
76794;BME280;65745;50.278;18.192;2024-03-08T12:59:05;100092.27;;;10.65;51.33
76794;BME280;65745;50.278;18.192;2024-03-08T13:01:38;100089.03;;;10.82;51.93
76794;BME280;65745;50.278;18.192;2024-03-08T13:04:11;100082.90;;;10.86;51.02
76794;BME280;65745;50.278;18.192;2024-03-08T13:06:44;100089.09;;;10.84;50.68
76794;BME280;65745;50.278;18.192;2024-03-08T13:09:19;100084.14;;;10.87;51.60
76794;BME280;65745;50.278;18.192;2024-03-08T13:11:53;100081.41;;;11.04;52.41
76794;BME280;65745;50.278;18.192;2024-03-08T13:14:26;100075.92;;;11.06;50.87
76794;BME280;65745;50.278;18.192;2024-03-08T13:16:59;100076.69;;;11.09;51.47